| time (UTC) | temp C | wind direction | speed KPH | gust KPH | rain 1hr cm | rain 24hr cm | rain mn cm | humidity % | barometer mb |
| 20260505194406 | 24 | 219 | 8.0 | 9.7 | 0.00 | 0.00 | 0.00 | 45 | 1016.1 |
| 20260505193905 | 25 | 228 | 4.8 | 8.0 | 0.00 | 0.00 | 0.00 | 46 | 1016.1 |
| 20260505193404 | 25 | 202 | 4.8 | 8.0 | 0.00 | 0.00 | 0.00 | 46 | 1016.0 |
| 20260505192901 | 24 | 211 | 4.8 | 8.0 | 0.00 | 0.00 | 0.00 | 49 | 1016.0 |
| 20260505192359 | 25 | 215 | 3.2 | 4.8 | 0.00 | 0.00 | 0.00 | 45 | 1016.2 |
| 20260505191856 | 24 | 189 | 4.8 | 4.8 | 0.00 | 0.00 | 0.00 | 45 | 1016.1 |
| 20260505191355 | 24 | 256 | 8.0 | 12.9 | 0.00 | 0.00 | 0.00 | 45 | 1016.2 |
| 20260505190851 | 23 | 206 | 4.8 | 8.0 | 0.00 | 0.00 | 0.00 | 47 | 1016.3 |
| 20260505190346 | 23 | 178 | 11.3 | 12.9 | 0.00 | 0.00 | 0.00 | 47 | 1016.4 |
| 20260505185842 | 23 | 227 | 8.0 | 9.7 | 0.00 | 0.00 | 0.00 | 49 | 1016.1 |
| 20260505185339 | 24 | 234 | 8.0 | 12.9 | 0.00 | 0.00 | 0.00 | 47 | 1016.2 |
| 20260505184835 | 23 | 239 | 4.8 | 4.8 | 0.00 | 0.00 | 0.00 | 50 | 1016.5 |
| 20260505184332 | 23 | 258 | 1.6 | 3.2 | 0.00 | 0.00 | 0.00 | 51 | 1016.6 |
| 20260505183829 | 23 | 256 | 4.8 | 8.0 | 0.00 | 0.00 | 0.00 | 48 | 1016.5 |
| 20260505183326 | 23 | 258 | 8.0 | 9.7 | 0.00 | 0.00 | 0.00 | 47 | 1016.5 |
| 20260505182823 | 23 | 267 | 4.8 | 4.8 | 0.00 | 0.00 | 0.00 | 48 | 1016.9 |
| 20260505182320 | 23 | 212 | 4.8 | 4.8 | 0.00 | 0.00 | 0.00 | 49 | 1016.8 |
| 20260505181816 | 23 | 249 | 8.0 | 12.9 | 0.00 | 0.00 | 0.00 | 48 | 1016.8 |
| 20260505181314 | 23 | 165 | 6.4 | 11.3 | 0.00 | 0.00 | 0.00 | 47 | 1017.1 |
| 20260505180810 | 23 | 153 | 8.0 | 9.7 | 0.00 | 0.00 | 0.00 | 46 | 1017.1 |
| 20260505180307 | 23 | 243 | 6.4 | 8.0 | 0.00 | 0.00 | 0.00 | 47 | 1017.2 |
| 20260505175803 | 23 | 202 | 4.8 | 8.0 | 0.00 | 0.00 | 0.00 | 50 | 1017.2 |
| 20260505175300 | 22 | 180 | 9.7 | 14.5 | 0.00 | 0.00 | 0.00 | 48 | 1017.3 |
| 20260505174756 | 23 | 239 | 3.2 | 4.8 | 0.00 | 0.00 | 0.00 | 48 | 1017.2 |
| 20260505174254 | 23 | 256 | 4.8 | 8.0 | 0.00 | 0.00 | 0.00 | 47 | 1017.4 |
| 20260505173749 | 22 | 259 | 8.0 | 9.7 | 0.00 | 0.00 | 0.00 | 47 | 1017.5 |
| 20260505173246 | 22 | 268 | 9.7 | 11.3 | 0.00 | 0.00 | 0.00 | 48 | 1017.6 |
| 20260505172743 | 23 | 266 | 6.4 | 8.0 | 0.00 | 0.00 | 0.00 | 49 | 1017.7 |
| 20260505172240 | 22 | 146 | 4.8 | 4.8 | 0.00 | 0.00 | 0.00 | 51 | 1017.5 |
| 20260505171740 | 22 | 256 | 11.3 | 14.5 | 0.00 | 0.00 | 0.00 | 48 | 1017.7 |
| 20260505171237 | 22 | 270 | 11.3 | 14.5 | 0.00 | 0.00 | 0.00 | 49 | 1017.7 |
| 20260505170734 | 22 | 221 | 9.7 | 12.9 | 0.00 | 0.00 | 0.00 | 47 | 1017.5 |
| 20260505170231 | 22 | 249 | 8.0 | 9.7 | 0.00 | 0.00 | 0.00 | 51 | 1017.4 |
| 20260505165726 | 22 | 187 | 4.8 | 8.0 | 0.00 | 0.00 | 0.00 | 50 | 1017.5 |
| 20260505165223 | 22 | 170 | 11.3 | 11.3 | 0.00 | 0.00 | 0.00 | 47 | 1017.7 |
| 20260505164718 | 22 | 196 | 6.4 | 9.7 | 0.00 | 0.00 | 0.00 | 50 | 1017.7 |
| 20260505164215 | 22 | 152 | 11.3 | 14.5 | 0.00 | 0.00 | 0.00 | 50 | 1017.7 |
| 20260505163713 | 22 | 220 | 4.8 | 9.7 | 0.00 | 0.00 | 0.00 | 51 | 1017.7 |
| 20260505163212 | 22 | 243 | 3.2 | 3.2 | 0.00 | 0.00 | 0.00 | 53 | 1018.1 |
| 20260505162709 | 22 | 262 | 6.4 | 9.7 | 0.00 | 0.00 | 0.00 | 53 | 1018.1 |
| 20260505162206 | 22 | 189 | 9.7 | 14.5 | 0.00 | 0.00 | 0.00 | 52 | 1017.9 |
| 20260505161702 | 21 | 238 | 9.7 | 12.9 | 0.00 | 0.00 | 0.00 | 54 | 1017.9 |
| 20260505161200 | 22 | 164 | 16.1 | 17.7 | 0.00 | 0.00 | 0.00 | 54 | 1017.6 |
| 20260505160658 | 22 | 288 | 11.3 | 12.9 | 0.00 | 0.00 | 0.00 | 54 | 1017.6 |
| 20260505160155 | 21 | 241 | 6.4 | 9.7 | 0.00 | 0.00 | 0.00 | 54 | 1017.4 |
| 20260505153134 | 21 | 275 | 11.3 | 14.5 | 0.00 | 0.00 | 0.00 | 51 | 1017.9 |
| 20260505152631 | 22 | 242 | 11.3 | 14.5 | 0.00 | 0.00 | 0.00 | 49 | 1018.1 |
| 20260505152127 | 21 | 232 | 4.8 | 8.0 | 0.00 | 0.00 | 0.00 | 53 | 1018.1 |
| 20260505151622 | 22 | 193 | 4.8 | 8.0 | 0.00 | 0.00 | 0.00 | 52 | 1018.0 |
| 20260505151120 | 22 | 256 | 14.5 | 16.1 | 0.00 | 0.00 | 0.00 | 51 | 1017.9 |
| 20260505150616 | 21 | 232 | 9.7 | 14.5 | 0.00 | 0.00 | 0.00 | 51 | 1017.8 |
| 20260505150113 | 21 | 250 | 4.8 | 8.0 | 0.00 | 0.00 | 0.00 | 56 | 1017.7 |
| 20260505140541 | 20 | 270 | 1.6 | 1.6 | 0.00 | 0.00 | 0.00 | 65 | 1017.5 |
| 20260505124955 | 14 | 309 | 1.6 | 1.6 | 0.00 | 0.00 | 0.00 | 83 | 1017.2 |
| 20260505124452 | 14 | 304 | 1.6 | 1.6 | 0.00 | 0.00 | 0.00 | 84 | 1017.1 |
| 20260505123947 | 13 | 285 | 0.0 | 1.6 | 0.00 | 0.00 | 0.00 | 84 | 1016.9 |
| 20260505123444 | 13 | 303 | 0.0 | 0.0 | 0.00 | 0.00 | 0.00 | 84 | 1016.8 |
| 20260505122940 | 13 | 297 | 0.0 | 1.6 | 0.00 | 0.00 | 0.00 | 85 | 1016.8 |
| 20260505122438 | 12 | 271 | 0.0 | 0.0 | 0.00 | 0.00 | 0.00 | 89 | 1016.8 |
| 20260505121934 | 11 | 280 | 0.0 | 0.0 | 0.00 | 0.00 | 0.00 | 92 | 1016.5 |
| 20260505121432 | 10 | 300 | 3.2 | 3.2 | 0.00 | 0.00 | 0.00 | 94 | 1016.9 |
| 20260505120927 | 10 | 278 | 0.0 | 0.0 | 0.00 | 0.00 | 0.00 | 98 | 1016.5 |
| 20260505120424 | 8 | 291 | 1.6 | 1.6 | 0.00 | 0.00 | 0.00 | 99 | 1016.8 |
| 20260505115923 | 8 | 280 | 0.0 | 0.0 | 0.00 | 0.00 | 0.00 | 98 | 1016.3 |
| 20260505115420 | 8 | 276 | 0.0 | 0.0 | 0.00 | 0.00 | 0.00 | 99 | 1016.4 |
| 20260505114918 | 8 | 275 | 0.0 | 0.0 | 0.00 | 0.00 | 0.00 | 99 | 1016.5 |
| 20260505114414 | 8 | 285 | 0.0 | 0.0 | 0.00 | 0.00 | 0.00 | 99 | 1016.4 |
| 20260505113910 | 7 | 276 | 0.0 | 0.0 | 0.00 | 0.00 | 0.00 | 99 | 1016.5 |
| 20260505113407 | 7 | 281 | 0.0 | 0.0 | 0.00 | 0.00 | 0.00 | 99 | 1016.3 |
| 20260505112902 | 7 | 269 | 0.0 | 0.0 | 0.00 | 0.00 | 0.00 | 98 | 1016.3 |
| 20260505112401 | 7 | 270 | 0.0 | 0.0 | 0.00 | 0.00 | 0.00 | 98 | 1016.2 |
| 20260505111856 | 8 | 274 | 0.0 | 0.0 | 0.00 | 0.00 | 0.00 | 99 | 1016.0 |
| 20260505111351 | 8 | 294 | 0.0 | 0.0 | 0.00 | 0.00 | 0.00 | 99 | 1015.9 |
| 20260505110847 | 7 | 278 | 0.0 | 0.0 | 0.00 | 0.00 | 0.00 | 99 | 1016.1 |
| 20260505110345 | 7 | 275 | 0.0 | 0.0 | 0.00 | 0.00 | 0.00 | 99 | 1016.2 |
| 20260505101815 | 7 | 277 | 0.0 | 0.0 | 0.00 | 0.00 | 0.00 | 99 | 1016.0 |
| 20260505101310 | 7 | 278 | 0.0 | 0.0 | 0.00 | 0.00 | 0.00 | 98 | 1016.2 |
| 20260505100806 | 7 | 279 | 0.0 | 0.0 | 0.00 | 0.00 | 0.00 | 98 | 1016.1 |
| 20260505100303 | 7 | 282 | 0.0 | 0.0 | 0.00 | 0.00 | 0.00 | 98 | 1016.2 |
| 20260505095759 | 7 | 273 | 0.0 | 0.0 | 0.00 | 0.00 | 0.00 | 98 | 1016.2 |
| 20260505095257 | 7 | 274 | 0.0 | 0.0 | 0.00 | 0.00 | 0.00 | 98 | 1016.2 |
| 20260505094752 | 7 | 275 | 0.0 | 0.0 | 0.00 | 0.00 | 0.00 | 98 | 1016.1 |
| 20260505094249 | 7 | 292 | 0.0 | 0.0 | 0.00 | 0.00 | 0.00 | 98 | 1016.1 |
| 20260505093745 | 7 | 281 | 0.0 | 0.0 | 0.00 | 0.00 | 0.00 | 98 | 1016.0 |
| 20260505093243 | 7 | 275 | 0.0 | 0.0 | 0.00 | 0.00 | 0.00 | 97 | 1016.2 |
| 20260505092739 | 8 | 276 | 0.0 | 0.0 | 0.00 | 0.00 | 0.00 | 97 | 1015.9 |
| 20260505092238 | 8 | 275 | 0.0 | 0.0 | 0.00 | 0.00 | 0.00 | 97 | 1016.1 |
| 20260505091735 | 8 | 275 | 0.0 | 0.0 | 0.00 | 0.00 | 0.00 | 97 | 1016.0 |
| 20260505091233 | 8 | 275 | 0.0 | 0.0 | 0.00 | 0.00 | 0.00 | 97 | 1016.2 |
| 20260505090730 | 8 | 276 | 0.0 | 0.0 | 0.00 | 0.00 | 0.00 | 97 | 1016.2 |
| 20260505090229 | 8 | 292 | 0.0 | 0.0 | 0.00 | 0.00 | 0.00 | 97 | 1016.4 |
| 20260505085725 | 8 | 275 | 0.0 | 0.0 | 0.00 | 0.00 | 0.00 | 97 | 1016.3 |
| 20260505085224 | 8 | 275 | 0.0 | 0.0 | 0.00 | 0.00 | 0.00 | 97 | 1016.2 |
| 20260505084721 | 8 | 275 | 0.0 | 0.0 | 0.00 | 0.00 | 0.00 | 97 | 1016.5 |
| 20260505084220 | 8 | 275 | 0.0 | 0.0 | 0.00 | 0.00 | 0.00 | 97 | 1016.4 |
| 20260505083716 | 8 | 275 | 0.0 | 0.0 | 0.00 | 0.00 | 0.00 | 97 | 1016.4 |
| 20260505083213 | 8 | 275 | 0.0 | 0.0 | 0.00 | 0.00 | 0.00 | 97 | 1016.6 |
| 20260505082709 | 8 | 276 | 0.0 | 0.0 | 0.00 | 0.00 | 0.00 | 96 | 1016.6 |
| 20260505082206 | 8 | 275 | 0.0 | 0.0 | 0.00 | 0.00 | 0.00 | 96 | 1016.3 |
| 20260505081702 | 8 | 275 | 0.0 | 0.0 | 0.00 | 0.00 | 0.00 | 96 | 1016.2 |
| 20260505081200 | 8 | 275 | 0.0 | 0.0 | 0.00 | 0.00 | 0.00 | 96 | 1016.4 |
| 20260505080656 | 8 | 275 | 0.0 | 0.0 | 0.00 | 0.00 | 0.00 | 96 | 1016.2 |
| 20260505080152 | 8 | 275 | 0.0 | 0.0 | 0.00 | 0.00 | 0.00 | 96 | 1016.2 |
| 20260505075648 | 9 | 275 | 0.0 | 0.0 | 0.00 | 0.00 | 0.00 | 96 | 1016.2 |
| 20260505075145 | 8 | 277 | 0.0 | 0.0 | 0.00 | 0.00 | 0.00 | 95 | 1016.1 |
| 20260505074642 | 8 | 280 | 0.0 | 0.0 | 0.00 | 0.00 | 0.00 | 95 | 1016.1 |
| 20260505074139 | 9 | 280 | 0.0 | 0.0 | 0.00 | 0.00 | 0.00 | 95 | 1016.1 |
| 20260505073637 | 9 | 270 | 0.0 | 0.0 | 0.00 | 0.00 | 0.00 | 95 | 1016.2 |
| 20260505073135 | 9 | 270 | 0.0 | 0.0 | 0.00 | 0.00 | 0.00 | 95 | 1016.0 |
| 20260505072630 | 9 | 268 | 0.0 | 0.0 | 0.00 | 0.00 | 0.00 | 95 | 1016.1 |
| 20260505072127 | 8 | 268 | 0.0 | 0.0 | 0.00 | 0.00 | 0.00 | 95 | 1016.2 |
| 20260505071623 | 8 | 267 | 0.0 | 0.0 | 0.00 | 0.00 | 0.00 | 95 | 1016.1 |
| 20260505071121 | 9 | 267 | 0.0 | 0.0 | 0.00 | 0.00 | 0.00 | 95 | 1016.1 |
| 20260505070618 | 9 | 268 | 0.0 | 0.0 | 0.00 | 0.00 | 0.00 | 95 | 1016.3 |
| 20260505070114 | 9 | 268 | 0.0 | 0.0 | 0.00 | 0.00 | 0.00 | 95 | 1016.4 |
| 20260505065610 | 9 | 268 | 0.0 | 0.0 | 0.00 | 0.00 | 0.00 | 95 | 1016.2 |
| 20260505065107 | 9 | 268 | 0.0 | 0.0 | 0.00 | 0.00 | 0.00 | 94 | 1016.1 |
| 20260505064604 | 9 | 267 | 0.0 | 0.0 | 0.00 | 0.00 | 0.00 | 94 | 1016.1 |
| 20260505064102 | 10 | 267 | 0.0 | 0.0 | 0.00 | 0.00 | 0.00 | 94 | 1016.3 |
| 20260505063559 | 10 | 276 | 0.0 | 0.0 | 0.00 | 0.00 | 0.00 | 93 | 1016.1 |
| 20260505063055 | 10 | 276 | 0.0 | 0.0 | 0.00 | 0.00 | 0.00 | 93 | 1016.0 |
| 20260505062551 | 10 | 276 | 0.0 | 0.0 | 0.00 | 0.00 | 0.00 | 94 | 1016.3 |
| 20260505062049 | 10 | 276 | 0.0 | 0.0 | 0.00 | 0.00 | 0.00 | 94 | 1016.2 |
| 20260505061546 | 10 | 276 | 0.0 | 0.0 | 0.00 | 0.00 | 0.00 | 93 | 1016.4 |
| 20260505061044 | 10 | 277 | 0.0 | 0.0 | 0.00 | 0.00 | 0.00 | 93 | 1016.3 |
| 20260505060541 | 10 | 279 | 0.0 | 0.0 | 0.00 | 0.00 | 0.00 | 93 | 1016.4 |
| 20260505060038 | 10 | 284 | 0.0 | 1.6 | 0.00 | 0.00 | 0.00 | 93 | 1016.3 |
| 20260505055533 | 10 | 285 | 0.0 | 0.0 | 0.00 | 0.00 | 0.00 | 92 | 1016.4 |
| 20260505055030 | 10 | 283 | 0.0 | 0.0 | 0.00 | 0.00 | 0.00 | 92 | 1016.5 |
| 20260505054527 | 10 | 279 | 0.0 | 0.0 | 0.00 | 0.00 | 0.00 | 91 | 1016.6 |
| 20260505054025 | 10 | 279 | 0.0 | 0.0 | 0.00 | 0.00 | 0.00 | 91 | 1016.6 |
| 20260505053522 | 10 | 279 | 0.0 | 0.0 | 0.00 | 0.00 | 0.00 | 90 | 1016.4 |
| 20260505053019 | 11 | 278 | 0.0 | 0.0 | 0.00 | 0.00 | 0.00 | 90 | 1016.4 |
| 20260505052516 | 11 | 278 | 0.0 | 0.0 | 0.00 | 0.00 | 0.00 | 89 | 1016.4 |
| 20260505052013 | 11 | 278 | 0.0 | 0.0 | 0.00 | 0.00 | 0.00 | 89 | 1016.3 |
| 20260505051510 | 11 | 277 | 0.0 | 0.0 | 0.00 | 0.00 | 0.00 | 89 | 1016.6 |
| 20260505051008 | 11 | 277 | 0.0 | 0.0 | 0.00 | 0.00 | 0.00 | 88 | 1016.6 |
| 20260505050506 | 11 | 277 | 0.0 | 0.0 | 0.00 | 0.00 | 0.00 | 89 | 1016.5 |
| 20260505041433 | 12 | 276 | 0.0 | 0.0 | 0.00 | 0.00 | 0.00 | 79 | 1016.4 |
| 20260505040931 | 12 | 272 | 0.0 | 0.0 | 0.00 | 0.00 | 0.00 | 78 | 1016.6 |
| 20260505040428 | 13 | 272 | 0.0 | 0.0 | 0.00 | 0.00 | 0.00 | 77 | 1016.5 |
| 20260505035925 | 13 | 272 | 0.0 | 0.0 | 0.00 | 0.00 | 0.00 | 76 | 1016.4 |
| 20260505035421 | 13 | 272 | 0.0 | 0.0 | 0.00 | 0.00 | 0.00 | 74 | 1016.6 |
| 20260505034918 | 13 | 272 | 0.0 | 0.0 | 0.00 | 0.00 | 0.00 | 73 | 1016.6 |
| 20260505034415 | 13 | 272 | 0.0 | 0.0 | 0.00 | 0.00 | 0.00 | 73 | 1016.5 |
| 20260505033912 | 13 | 272 | 0.0 | 0.0 | 0.00 | 0.00 | 0.00 | 74 | 1016.5 |
| 20260505033408 | 13 | 272 | 0.0 | 0.0 | 0.00 | 0.00 | 0.00 | 74 | 1016.6 |
| 20260505032907 | 13 | 272 | 0.0 | 0.0 | 0.00 | 0.00 | 0.00 | 76 | 1016.5 |
| 20260505032403 | 13 | 272 | 0.0 | 0.0 | 0.00 | 0.00 | 0.00 | 76 | 1016.6 |
| 20260505031900 | 13 | 272 | 0.0 | 0.0 | 0.00 | 0.00 | 0.00 | 76 | 1016.8 |
| 20260505031357 | 13 | 272 | 0.0 | 0.0 | 0.00 | 0.00 | 0.00 | 79 | 1016.6 |
| 20260505030854 | 12 | 272 | 0.0 | 0.0 | 0.00 | 0.00 | 0.00 | 80 | 1016.9 |
| 20260505030350 | 12 | 272 | 0.0 | 0.0 | 0.00 | 0.00 | 0.00 | 84 | 1016.8 |
| 20260505025845 | 13 | 272 | 0.0 | 0.0 | 0.00 | 0.00 | 0.00 | 81 | 1016.9 |
| 20260505025343 | 13 | 272 | 0.0 | 0.0 | 0.00 | 0.00 | 0.00 | 80 | 1016.8 |
| 20260505024842 | 13 | 272 | 0.0 | 0.0 | 0.00 | 0.00 | 0.00 | 80 | 1016.8 |
| 20260505024339 | 13 | 272 | 0.0 | 0.0 | 0.00 | 0.00 | 0.00 | 80 | 1016.9 |
| 20260505023836 | 13 | 272 | 0.0 | 0.0 | 0.00 | 0.00 | 0.00 | 80 | 1016.8 |
| 20260505023333 | 13 | 272 | 0.0 | 0.0 | 0.00 | 0.00 | 0.00 | 79 | 1016.9 |
| 20260505022830 | 13 | 272 | 0.0 | 0.0 | 0.00 | 0.00 | 0.00 | 79 | 1017.0 |
| 20260505022327 | 13 | 272 | 0.0 | 0.0 | 0.00 | 0.00 | 0.00 | 78 | 1016.8 |
| 20260505021824 | 13 | 277 | 0.0 | 0.0 | 0.00 | 0.00 | 0.00 | 81 | 1016.5 |
| 20260505021321 | 13 | 267 | 0.0 | 0.0 | 0.00 | 0.00 | 0.00 | 81 | 1016.5 |
| 20260505020816 | 13 | 268 | 0.0 | 0.0 | 0.00 | 0.00 | 0.00 | 79 | 1016.5 |
| 20260505020312 | 13 | 268 | 0.0 | 0.0 | 0.00 | 0.00 | 0.00 | 78 | 1016.3 |
| 20260505015809 | 14 | 268 | 0.0 | 0.0 | 0.00 | 0.00 | 0.00 | 79 | 1016.3 |
| 20260505015306 | 14 | 268 | 0.0 | 0.0 | 0.00 | 0.00 | 0.00 | 78 | 1016.3 |
| 20260505014804 | 14 | 268 | 0.0 | 0.0 | 0.00 | 0.00 | 0.00 | 77 | 1016.4 |
| 20260505014300 | 14 | 267 | 0.0 | 0.0 | 0.00 | 0.00 | 0.00 | 78 | 1016.5 |
| 20260505013757 | 14 | 267 | 0.0 | 0.0 | 0.00 | 0.00 | 0.00 | 78 | 1016.4 |
| 20260505013254 | 14 | 267 | 0.0 | 0.0 | 0.00 | 0.00 | 0.00 | 78 | 1016.3 |
| 20260505012753 | 15 | 268 | 0.0 | 0.0 | 0.00 | 0.00 | 0.00 | 76 | 1016.2 |
| 20260505012250 | 15 | 267 | 0.0 | 0.0 | 0.00 | 0.00 | 0.00 | 74 | 1016.2 |
| 20260505011745 | 15 | 267 | 0.0 | 0.0 | 0.00 | 0.00 | 0.00 | 74 | 1016.1 |
| 20260505011242 | 15 | 267 | 0.0 | 0.0 | 0.00 | 0.00 | 0.00 | 73 | 1016.2 |
| 20260505010738 | 15 | 267 | 0.0 | 0.0 | 0.00 | 0.00 | 0.00 | 73 | 1016.2 |
| 20260505010235 | 15 | 267 | 0.0 | 0.0 | 0.00 | 0.00 | 0.00 | 72 | 1016.2 |
| 20260505005731 | 16 | 267 | 0.0 | 0.0 | 0.00 | 0.00 | 0.00 | 71 | 1016.1 |
| 20260505005228 | 16 | 268 | 0.0 | 0.0 | 0.00 | 0.00 | 0.00 | 69 | 1016.1 |
| 20260505004725 | 17 | 268 | 0.0 | 0.0 | 0.00 | 0.00 | 0.00 | 67 | 1016.1 |
| 20260505004222 | 17 | 268 | 0.0 | 0.0 | 0.00 | 0.00 | 0.00 | 67 | 1016.0 |
| 20260505003719 | 17 | 268 | 0.0 | 0.0 | 0.00 | 0.00 | 0.00 | 66 | 1015.9 |
| 20260505003217 | 17 | 267 | 0.0 | 0.0 | 0.00 | 0.00 | 0.00 | 67 | 1015.9 |
| 20260505002713 | 18 | 267 | 0.0 | 0.0 | 0.00 | 0.00 | 0.00 | 63 | 1015.8 |
| 20260505002211 | 18 | 267 | 0.0 | 0.0 | 0.00 | 0.00 | 0.00 | 62 | 1015.9 |
| 20260505001708 | 18 | 267 | 0.0 | 0.0 | 0.00 | 0.00 | 0.00 | 59 | 1015.6 |
| 20260505001205 | 19 | 267 | 0.0 | 0.0 | 0.00 | 0.00 | 0.00 | 59 | 1015.8 |
| 20260505000702 | 19 | 268 | 0.0 | 0.0 | 0.00 | 0.00 | 0.00 | 58 | 1015.8 |
| 20260505000200 | 20 | 263 | 0.0 | 0.0 | 0.00 | 0.00 | 0.00 | 57 | 1015.9 |
| 20260504235656 | 20 | 263 | 0.0 | 0.0 | 0.00 | 0.00 | 0.00 | 55 | 1016.0 |
| 20260504235152 | 20 | 263 | 0.0 | 0.0 | 0.00 | 0.00 | 0.00 | 53 | 1016.0 |
| 20260504234650 | 21 | 263 | 0.0 | 0.0 | 0.00 | 0.00 | 0.00 | 52 | 1016.1 |
| 20260504234147 | 21 | 263 | 0.0 | 0.0 | 0.00 | 0.00 | 0.00 | 50 | 1015.8 |
| 20260504233643 | 21 | 265 | 0.0 | 0.0 | 0.00 | 0.00 | 0.00 | 47 | 1015.8 |
| 20260504233139 | 22 | 261 | 0.0 | 0.0 | 0.00 | 0.00 | 0.00 | 46 | 1016.0 |
| 20260504232637 | 22 | 259 | 0.0 | 0.0 | 0.00 | 0.00 | 0.00 | 46 | 1016.0 |
| 20260504232133 | 22 | 272 | 3.2 | 3.2 | 0.00 | 0.00 | 0.00 | 45 | 1016.0 |
| 20260504231630 | 22 | 249 | 1.6 | 3.2 | 0.00 | 0.00 | 0.00 | 45 | 1015.9 |
| 20260504231126 | 22 | 252 | 0.0 | 1.6 | 0.00 | 0.00 | 0.00 | 44 | 1015.9 |
| 20260504230622 | 23 | 262 | 3.2 | 3.2 | 0.00 | 0.00 | 0.00 | 42 | 1015.9 |
| 20260504230122 | 23 | 250 | 3.2 | 3.2 | 0.00 | 0.00 | 0.00 | 42 | 1015.9 |
| 20260504225619 | 23 | 243 | 0.0 | 1.6 | 0.00 | 0.00 | 0.00 | 42 | 1016.0 |
| 20260504223431 | 23 | 272 | 4.8 | 4.8 | 0.00 | 0.00 | 0.00 | 41 | 1016.2 |
| 20260504222927 | 23 | 272 | 4.8 | 4.8 | 0.00 | 0.00 | 0.00 | 41 | 1016.2 |
| 20260504222425 | 23 | 272 | 4.8 | 4.8 | 0.00 | 0.00 | 0.00 | 41 | 1016.2 |
| 20260504221923 | 23 | 264 | 0.0 | 0.0 | 0.00 | 0.00 | 0.00 | 43 | 1016.0 |
| 20260504221419 | 23 | 276 | 4.8 | 4.8 | 0.00 | 0.00 | 0.00 | 41 | 1016.0 |
| 20260504220916 | 23 | 271 | 0.0 | 0.0 | 0.00 | 0.00 | 0.00 | 41 | 1016.0 |
| 20260504220413 | 23 | 259 | 3.2 | 3.2 | 0.00 | 0.00 | 0.00 | 39 | 1016.0 |
| 20260504215910 | 23 | 246 | 8.0 | 9.7 | 0.00 | 0.00 | 0.00 | 39 | 1016.0 |
| 20260504215407 | 23 | 239 | 6.4 | 8.0 | 0.00 | 0.00 | 0.00 | 39 | 1016.1 |
| 20260504214903 | 23 | 252 | 4.8 | 4.8 | 0.00 | 0.00 | 0.00 | 39 | 1015.9 |
| 20260504214400 | 24 | 260 | 4.8 | 8.0 | 0.00 | 0.00 | 0.00 | 42 | 1016.1 |
| 20260504213856 | 24 | 249 | 0.0 | 0.0 | 0.00 | 0.00 | 0.00 | 41 | 1016.0 |
| 20260504213352 | 23 | 232 | 3.2 | 3.2 | 0.00 | 0.00 | 0.00 | 40 | 1015.8 |
| 20260504212850 | 24 | 260 | 4.8 | 8.0 | 0.00 | 0.00 | 0.00 | 40 | 1016.1 |
| 20260504212346 | 23 | 256 | 1.6 | 1.6 | 0.00 | 0.00 | 0.00 | 39 | 1016.0 |
| 20260504211844 | 23 | 144 | 11.3 | 14.5 | 0.00 | 0.00 | 0.00 | 39 | 1015.9 |
| 20260504211339 | 24 | 261 | 8.0 | 9.7 | 0.00 | 0.00 | 0.00 | 37 | 1015.9 |
| 20260504210837 | 24 | 244 | 3.2 | 4.8 | 0.00 | 0.00 | 0.00 | 40 | 1015.9 |
| 20260504210334 | 23 | 251 | 1.6 | 3.2 | 0.00 | 0.00 | 0.00 | 42 | 1016.0 |
| 20260504205831 | 23 | 234 | 3.2 | 4.8 | 0.00 | 0.00 | 0.00 | 40 | 1016.0 |
| 20260504205329 | 24 | 256 | 3.2 | 4.8 | 0.00 | 0.00 | 0.00 | 42 | 1016.1 |
| 20260504204827 | 24 | 263 | 0.0 | 1.6 | 0.00 | 0.00 | 0.00 | 39 | 1016.0 |
| 20260504204325 | 24 | 249 | 4.8 | 4.8 | 0.00 | 0.00 | 0.00 | 41 | 1016.1 |
| 20260504203824 | 24 | 223 | 4.8 | 4.8 | 0.00 | 0.00 | 0.00 | 45 | 1016.2 |
| 20260504203321 | 23 | 289 | 9.7 | 11.3 | 0.00 | 0.00 | 0.00 | 42 | 1016.1 |
| 20260504202816 | 24 | 261 | 0.0 | 0.0 | 0.00 | 0.00 | 0.00 | 40 | 1016.4 |
| 20260504202314 | 25 | 237 | 3.2 | 3.2 | 0.00 | 0.00 | 0.00 | 41 | 1016.4 |
| 20260504201810 | 25 | 243 | 1.6 | 3.2 | 0.00 | 0.00 | 0.00 | 42 | 1016.3 |
| 20260504201308 | 25 | 234 | 4.8 | 4.8 | 0.00 | 0.00 | 0.00 | 42 | 1016.3 |
| 20260504200805 | 23 | 260 | 0.0 | 0.0 | 0.00 | 0.00 | 0.00 | 45 | 1016.4 |
| 20260504200301 | 23 | 221 | 4.8 | 4.8 | 0.00 | 0.00 | 0.00 | 45 | 1016.4 |
| 20260504195757 | 24 | 256 | 4.8 | 8.0 | 0.00 | 0.00 | 0.00 | 45 | 1016.4 |
| 20260504195253 | 23 | 224 | 1.6 | 3.2 | 0.00 | 0.00 | 0.00 | 44 | 1016.6 |
| 20260504194750 | 25 | 275 | 9.7 | 11.3 | 0.00 | 0.00 | 0.00 | 42 | 1016.9 |